sensor_id;sensor_type;location;lat;lon;timestamp;P1;durP1;ratioP1;P2;durP2;ratioP2
3000;SDS011;1510;51.072;6.678;2023-02-14T00:00:02;838.07;;;769.47;;
3000;SDS011;1510;51.072;6.678;2023-02-14T00:02:30;838.33;;;770.60;;
3000;SDS011;1510;51.072;6.678;2023-02-14T00:04:58;836.47;;;768.43;;
3000;SDS011;1510;51.072;6.678;2023-02-14T00:07:25;830.20;;;760.20;;
3000;SDS011;1510;51.072;6.678;2023-02-14T00:09:52;825.97;;;756.53;;
3000;SDS011;1510;51.072;6.678;2023-02-14T00:12:19;832.90;;;763.27;;
3000;SDS011;1510;51.072;6.678;2023-02-14T00:14:47;830.70;;;762.50;;
3000;SDS011;1510;51.072;6.678;2023-02-14T00:17:31;828.17;;;760.80;;
3000;SDS011;1510;51.072;6.678;2023-02-14T00:20:00;844.57;;;776.87;;
3000;SDS011;1510;51.072;6.678;2023-02-14T00:22:26;846.70;;;780.80;;
3000;SDS011;1510;51.072;6.678;2023-02-14T00:24:53;840.63;;;776.47;;
3000;SDS011;1510;51.072;6.678;2023-02-14T00:27:20;841.20;;;777.67;;
3000;SDS011;1510;51.072;6.678;2023-02-14T00:29:47;844.97;;;782.70;;
3000;SDS011;1510;51.072;6.678;2023-02-14T00:32:14;834.57;;;773.03;;
3000;SDS011;1510;51.072;6.678;2023-02-14T00:34:41;840.80;;;779.47;;
3000;SDS011;1510;51.072;6.678;2023-02-14T00:37:09;842.47;;;780.67;;
3000;SDS011;1510;51.072;6.678;2023-02-14T00:39:35;835.00;;;772.50;;
3000;SDS011;1510;51.072;6.678;2023-02-14T00:42:02;843.03;;;782.83;;
3000;SDS011;1510;51.072;6.678;2023-02-14T00:44:29;834.83;;;775.73;;
3000;SDS011;1510;51.072;6.678;2023-02-14T00:46:56;840.37;;;783.27;;
3000;SDS011;1510;51.072;6.678;2023-02-14T00:49:23;841.63;;;784.97;;
3000;SDS011;1510;51.072;6.678;2023-02-14T00:51:50;823.60;;;768.40;;
3000;SDS011;1510;51.072;6.678;2023-02-14T00:54:18;831.10;;;774.50;;
3000;SDS011;1510;51.072;6.678;2023-02-14T00:56:45;826.67;;;770.87;;
3000;SDS011;1510;51.072;6.678;2023-02-14T00:59:11;828.00;;;773.73;;
3000;SDS011;1510;51.072;6.678;2023-02-14T01:01:38;811.63;;;759.47;;
3000;SDS011;1510;51.072;6.678;2023-02-14T01:04:05;802.17;;;750.77;;
3000;SDS011;1510;51.072;6.678;2023-02-14T01:06:32;794.80;;;745.60;;
3000;SDS011;1510;51.072;6.678;2023-02-14T01:08:59;806.37;;;756.07;;
3000;SDS011;1510;51.072;6.678;2023-02-14T01:11:27;826.27;;;771.27;;
3000;SDS011;1510;51.072;6.678;2023-02-14T01:13:55;825.40;;;765.67;;
3000;SDS011;1510;51.072;6.678;2023-02-14T01:16:23;835.73;;;774.63;;
3000;SDS011;1510;51.072;6.678;2023-02-14T01:18:51;817.70;;;757.40;;
3000;SDS011;1510;51.072;6.678;2023-02-14T01:21:19;821.90;;;758.90;;
3000;SDS011;1510;51.072;6.678;2023-02-14T01:23:48;819.33;;;754.13;;
3000;SDS011;1510;51.072;6.678;2023-02-14T01:26:16;812.87;;;748.30;;
3000;SDS011;1510;51.072;6.678;2023-02-14T01:28:45;806.37;;;745.77;;
3000;SDS011;1510;51.072;6.678;2023-02-14T01:31:13;804.47;;;748.40;;
3000;SDS011;1510;51.072;6.678;2023-02-14T01:33:42;807.57;;;753.93;;
3000;SDS011;1510;51.072;6.678;2023-02-14T01:36:16;806.60;;;752.47;;
3000;SDS011;1510;51.072;6.678;2023-02-14T01:38:44;822.63;;;766.37;;
3000;SDS011;1510;51.072;6.678;2023-02-14T01:41:11;822.63;;;764.20;;
3000;SDS011;1510;51.072;6.678;2023-02-14T01:43:50;818.73;;;759.90;;
3000;SDS011;1510;51.072;6.678;2023-02-14T01:46:22;827.70;;;768.83;;
3000;SDS011;1510;51.072;6.678;2023-02-14T01:48:50;819.77;;;759.87;;
3000;SDS011;1510;51.072;6.678;2023-02-14T01:51:20;827.37;;;765.10;;
3000;SDS011;1510;51.072;6.678;2023-02-14T01:53:48;827.63;;;764.77;;
3000;SDS011;1510;51.072;6.678;2023-02-14T01:56:17;824.23;;;757.83;;
3000;SDS011;1510;51.072;6.678;2023-02-14T01:58:50;818.70;;;748.80;;
3000;SDS011;1510;51.072;6.678;2023-02-14T02:01:19;811.30;;;741.93;;
3000;SDS011;1510;51.072;6.678;2023-02-14T02:03:48;804.63;;;734.97;;
3000;SDS011;1510;51.072;6.678;2023-02-14T02:06:18;799.00;;;727.73;;
3000;SDS011;1510;51.072;6.678;2023-02-14T02:08:49;809.87;;;733.30;;
3000;SDS011;1510;51.072;6.678;2023-02-14T02:11:22;790.50;;;714.10;;
3000;SDS011;1510;51.072;6.678;2023-02-14T02:13:51;788.40;;;709.80;;
3000;SDS011;1510;51.072;6.678;2023-02-14T02:16:25;791.10;;;712.43;;
3000;SDS011;1510;51.072;6.678;2023-02-14T02:19:11;801.03;;;721.30;;
3000;SDS011;1510;51.072;6.678;2023-02-14T02:22:13;787.77;;;708.13;;
3000;SDS011;1510;51.072;6.678;2023-02-14T02:24:58;800.80;;;719.17;;
3000;SDS011;1510;51.072;6.678;2023-02-14T02:27:41;780.87;;;699.23;;
3000;SDS011;1510;51.072;6.678;2023-02-14T02:36:36;779.80;;;698.03;;
3000;SDS011;1510;51.072;6.678;2023-02-14T02:39:22;790.60;;;709.30;;
3000;SDS011;1510;51.072;6.678;2023-02-14T02:42:01;801.10;;;721.03;;
3000;SDS011;1510;51.072;6.678;2023-02-14T02:44:34;795.20;;;714.07;;
3000;SDS011;1510;51.072;6.678;2023-02-14T02:47:11;765.60;;;685.30;;
3000;SDS011;1510;51.072;6.678;2023-02-14T02:49:44;770.83;;;693.73;;
3000;SDS011;1510;51.072;6.678;2023-02-14T02:52:38;789.77;;;713.77;;
3000;SDS011;1510;51.072;6.678;2023-02-14T02:55:26;788.80;;;712.50;;
3000;SDS011;1510;51.072;6.678;2023-02-14T02:58:20;793.73;;;715.20;;
3000;SDS011;1510;51.072;6.678;2023-02-14T03:00:48;780.73;;;702.30;;
3000;SDS011;1510;51.072;6.678;2023-02-14T03:03:16;772.23;;;693.67;;
3000;SDS011;1510;51.072;6.678;2023-02-14T03:06:02;775.00;;;696.63;;
3000;SDS011;1510;51.072;6.678;2023-02-14T03:08:31;775.87;;;699.77;;
3000;SDS011;1510;51.072;6.678;2023-02-14T03:10:58;781.43;;;705.73;;
3000;SDS011;1510;51.072;6.678;2023-02-14T03:13:42;786.60;;;712.60;;
3000;SDS011;1510;51.072;6.678;2023-02-14T03:16:24;795.55;;;722.22;;
3000;SDS011;1510;51.072;6.678;2023-02-14T03:22:20;789.70;;;714.37;;
3000;SDS011;1510;51.072;6.678;2023-02-14T03:24:56;784.87;;;707.80;;
3000;SDS011;1510;51.072;6.678;2023-02-14T03:27:29;778.13;;;700.67;;
3000;SDS011;1510;51.072;6.678;2023-02-14T03:30:02;777.07;;;698.77;;
3000;SDS011;1510;51.072;6.678;2023-02-14T03:32:36;782.40;;;702.83;;
3000;SDS011;1510;51.072;6.678;2023-02-14T03:35:09;778.57;;;699.67;;
3000;SDS011;1510;51.072;6.678;2023-02-14T03:37:42;783.53;;;703.27;;
3000;SDS011;1510;51.072;6.678;2023-02-14T03:42:46;789.10;;;706.77;;
3000;SDS011;1510;51.072;6.678;2023-02-14T03:45:17;787.03;;;702.80;;
3000;SDS011;1510;51.072;6.678;2023-02-14T03:47:48;777.97;;;693.67;;
3000;SDS011;1510;51.072;6.678;2023-02-14T03:50:18;779.03;;;694.73;;
3000;SDS011;1510;51.072;6.678;2023-02-14T03:52:45;777.10;;;693.07;;
3000;SDS011;1510;51.072;6.678;2023-02-14T03:55:16;765.13;;;680.57;;
3000;SDS011;1510;51.072;6.678;2023-02-14T03:57:50;765.20;;;681.73;;
3000;SDS011;1510;51.072;6.678;2023-02-14T04:00:22;768.63;;;686.00;;
3000;SDS011;1510;51.072;6.678;2023-02-14T04:02:51;766.67;;;682.83;;
3000;SDS011;1510;51.072;6.678;2023-02-14T04:05:21;756.23;;;674.17;;
3000;SDS011;1510;51.072;6.678;2023-02-14T04:07:52;757.47;;;675.80;;
3000;SDS011;1510;51.072;6.678;2023-02-14T04:10:22;773.47;;;691.50;;
3000;SDS011;1510;51.072;6.678;2023-02-14T04:12:50;778.60;;;696.70;;
3000;SDS011;1510;51.072;6.678;2023-02-14T04:15:17;769.80;;;687.37;;
3000;SDS011;1510;51.072;6.678;2023-02-14T04:17:44;766.87;;;685.57;;
3000;SDS011;1510;51.072;6.678;2023-02-14T04:20:43;770.93;;;690.97;;
3000;SDS011;1510;51.072;6.678;2023-02-14T04:23:09;775.97;;;696.27;;
3000;SDS011;1510;51.072;6.678;2023-02-14T04:25:37;775.97;;;696.07;;
3000;SDS011;1510;51.072;6.678;2023-02-14T04:28:06;759.10;;;680.13;;
3000;SDS011;1510;51.072;6.678;2023-02-14T04:30:33;776.80;;;697.80;;
3000;SDS011;1510;51.072;6.678;2023-02-14T04:33:00;772.07;;;694.23;;
3000;SDS011;1510;51.072;6.678;2023-02-14T04:35:28;778.27;;;701.10;;
3000;SDS011;1510;51.072;6.678;2023-02-14T04:37:54;778.23;;;701.73;;
3000;SDS011;1510;51.072;6.678;2023-02-14T04:40:21;803.43;;;725.17;;
3000;SDS011;1510;51.072;6.678;2023-02-14T04:42:49;804.23;;;725.63;;
3000;SDS011;1510;51.072;6.678;2023-02-14T04:45:16;793.20;;;715.37;;
3000;SDS011;1510;51.072;6.678;2023-02-14T04:47:43;820.93;;;742.53;;
3000;SDS011;1510;51.072;6.678;2023-02-14T04:50:10;813.17;;;735.87;;
3000;SDS011;1510;51.072;6.678;2023-02-14T04:52:37;812.50;;;734.17;;
3000;SDS011;1510;51.072;6.678;2023-02-14T04:55:04;822.73;;;744.43;;
3000;SDS011;1510;51.072;6.678;2023-02-14T04:57:32;800.80;;;723.00;;
3000;SDS011;1510;51.072;6.678;2023-02-14T05:00:00;802.43;;;723.53;;
3000;SDS011;1510;51.072;6.678;2023-02-14T05:02:27;831.60;;;751.53;;
3000;SDS011;1510;51.072;6.678;2023-02-14T05:04:54;826.30;;;746.40;;
3000;SDS011;1510;51.072;6.678;2023-02-14T05:07:20;818.37;;;738.93;;
3000;SDS011;1510;51.072;6.678;2023-02-14T05:09:47;809.67;;;731.33;;
3000;SDS011;1510;51.072;6.678;2023-02-14T05:12:14;820.87;;;741.20;;
3000;SDS011;1510;51.072;6.678;2023-02-14T05:14:41;823.50;;;743.20;;
3000;SDS011;1510;51.072;6.678;2023-02-14T05:17:09;825.40;;;743.47;;
3000;SDS011;1510;51.072;6.678;2023-02-14T05:19:36;801.70;;;719.97;;
3000;SDS011;1510;51.072;6.678;2023-02-14T05:22:02;802.07;;;721.10;;
3000;SDS011;1510;51.072;6.678;2023-02-14T05:24:29;809.57;;;726.43;;
3000;SDS011;1510;51.072;6.678;2023-02-14T05:26:56;832.53;;;748.67;;
3000;SDS011;1510;51.072;6.678;2023-02-14T05:29:23;816.27;;;731.27;;
3000;SDS011;1510;51.072;6.678;2023-02-14T05:31:50;823.50;;;739.30;;
3000;SDS011;1510;51.072;6.678;2023-02-14T05:34:18;817.80;;;732.90;;
3000;SDS011;1510;51.072;6.678;2023-02-14T05:36:44;839.10;;;754.57;;
3000;SDS011;1510;51.072;6.678;2023-02-14T05:39:11;859.50;;;772.87;;
3000;SDS011;1510;51.072;6.678;2023-02-14T05:41:39;855.83;;;768.00;;
3000;SDS011;1510;51.072;6.678;2023-02-14T05:44:05;836.93;;;751.20;;
3000;SDS011;1510;51.072;6.678;2023-02-14T05:46:32;837.33;;;752.97;;
3000;SDS011;1510;51.072;6.678;2023-02-14T05:48:59;871.70;;;785.77;;
3000;SDS011;1510;51.072;6.678;2023-02-14T05:51:27;863.57;;;778.30;;
3000;SDS011;1510;51.072;6.678;2023-02-14T05:53:54;860.40;;;775.53;;
3000;SDS011;1510;51.072;6.678;2023-02-14T05:56:21;858.33;;;771.90;;
3000;SDS011;1510;51.072;6.678;2023-02-14T05:58:48;860.83;;;774.63;;
3000;SDS011;1510;51.072;6.678;2023-02-14T06:01:15;865.00;;;778.97;;
3000;SDS011;1510;51.072;6.678;2023-02-14T06:03:42;836.90;;;750.50;;
3000;SDS011;1510;51.072;6.678;2023-02-14T06:06:08;848.17;;;761.40;;
3000;SDS011;1510;51.072;6.678;2023-02-14T06:08:37;838.17;;;752.80;;
3000;SDS011;1510;51.072;6.678;2023-02-14T06:11:04;833.63;;;747.73;;
3000;SDS011;1510;51.072;6.678;2023-02-14T06:13:30;880.23;;;793.60;;
3000;SDS011;1510;51.072;6.678;2023-02-14T06:15:57;863.30;;;777.90;;
3000;SDS011;1510;51.072;6.678;2023-02-14T06:18:24;875.30;;;788.50;;
3000;SDS011;1510;51.072;6.678;2023-02-14T06:20:52;879.17;;;791.67;;
3000;SDS011;1510;51.072;6.678;2023-02-14T06:23:19;876.63;;;789.53;;
3000;SDS011;1510;51.072;6.678;2023-02-14T06:25:47;888.67;;;801.70;;
3000;SDS011;1510;51.072;6.678;2023-02-14T06:28:14;900.93;;;814.33;;
3000;SDS011;1510;51.072;6.678;2023-02-14T06:30:40;876.57;;;790.53;;
3000;SDS011;1510;51.072;6.678;2023-02-14T06:33:07;871.50;;;785.30;;
3000;SDS011;1510;51.072;6.678;2023-02-14T06:35:34;881.43;;;794.03;;
3000;SDS011;1510;51.072;6.678;2023-02-14T06:38:01;892.50;;;804.40;;
3000;SDS011;1510;51.072;6.678;2023-02-14T06:40:27;894.00;;;805.57;;
3000;SDS011;1510;51.072;6.678;2023-02-14T06:42:55;877.97;;;789.77;;
3000;SDS011;1510;51.072;6.678;2023-02-14T06:45:22;889.80;;;802.80;;
3000;SDS011;1510;51.072;6.678;2023-02-14T06:47:49;856.67;;;770.40;;
3000;SDS011;1510;51.072;6.678;2023-02-14T06:50:16;873.80;;;787.10;;
3000;SDS011;1510;51.072;6.678;2023-02-14T06:52:42;842.37;;;754.80;;
3000;SDS011;1510;51.072;6.678;2023-02-14T06:55:09;826.87;;;741.90;;
3000;SDS011;1510;51.072;6.678;2023-02-14T06:57:37;819.65;;;733.33;;
3000;SDS011;1510;51.072;6.678;2023-02-14T07:00:07;816.07;;;728.73;;
3000;SDS011;1510;51.072;6.678;2023-02-14T07:02:35;812.27;;;725.10;;
3000;SDS011;1510;51.072;6.678;2023-02-14T07:05:01;835.20;;;746.80;;
3000;SDS011;1510;51.072;6.678;2023-02-14T07:07:28;835.75;;;746.38;;
3000;SDS011;1510;51.072;6.678;2023-02-14T07:09:55;834.93;;;745.60;;
3000;SDS011;1510;51.072;6.678;2023-02-14T07:12:22;843.97;;;754.37;;
3000;SDS011;1510;51.072;6.678;2023-02-14T07:14:48;844.00;;;753.20;;
3000;SDS011;1510;51.072;6.678;2023-02-14T07:17:17;844.40;;;753.60;;
3000;SDS011;1510;51.072;6.678;2023-02-14T07:19:43;849.00;;;758.30;;
3000;SDS011;1510;51.072;6.678;2023-02-14T07:22:10;838.00;;;746.70;;
3000;SDS011;1510;51.072;6.678;2023-02-14T07:24:37;831.40;;;740.63;;
3000;SDS011;1510;51.072;6.678;2023-02-14T07:27:03;805.87;;;718.40;;
3000;SDS011;1510;51.072;6.678;2023-02-14T07:29:30;803.33;;;716.67;;
3000;SDS011;1510;51.072;6.678;2023-02-14T07:31:57;799.15;;;712.58;;
3000;SDS011;1510;51.072;6.678;2023-02-14T07:34:25;802.40;;;715.30;;
3000;SDS011;1510;51.072;6.678;2023-02-14T07:36:52;800.10;;;712.33;;
3000;SDS011;1510;51.072;6.678;2023-02-14T07:39:19;794.37;;;706.77;;
3000;SDS011;1510;51.072;6.678;2023-02-14T07:41:45;809.43;;;704.27;;
3000;SDS011;1510;51.072;6.678;2023-02-14T07:44:12;784.80;;;681.50;;
3000;SDS011;1510;51.072;6.678;2023-02-14T07:46:39;805.13;;;714.17;;
3000;SDS011;1510;51.072;6.678;2023-02-14T07:49:06;812.00;;;713.90;;
3000;SDS011;1510;51.072;6.678;2023-02-14T07:51:35;801.97;;;694.27;;
3000;SDS011;1510;51.072;6.678;2023-02-14T07:54:01;820.47;;;713.10;;
3000;SDS011;1510;51.072;6.678;2023-02-14T07:56:31;798.50;;;694.00;;
3000;SDS011;1510;51.072;6.678;2023-02-14T07:58:58;817.40;;;695.73;;
3000;SDS011;1510;51.072;6.678;2023-02-14T08:01:24;785.67;;;683.87;;
3000;SDS011;1510;51.072;6.678;2023-02-14T08:03:51;784.13;;;665.27;;
3000;SDS011;1510;51.072;6.678;2023-02-14T08:06:18;797.17;;;690.13;;
3000;SDS011;1510;51.072;6.678;2023-02-14T08:08:46;809.60;;;672.20;;
3000;SDS011;1510;51.072;6.678;2023-02-14T08:11:14;788.63;;;675.37;;
3000;SDS011;1510;51.072;6.678;2023-02-14T08:14:01;795.33;;;680.20;;
3000;SDS011;1510;51.072;6.678;2023-02-14T08:16:28;791.77;;;668.30;;
3000;SDS011;1510;51.072;6.678;2023-02-14T08:18:56;791.27;;;680.10;;
3000;SDS011;1510;51.072;6.678;2023-02-14T08:21:23;791.60;;;675.37;;
3000;SDS011;1510;51.072;6.678;2023-02-14T08:23:51;795.30;;;683.00;;
3000;SDS011;1510;51.072;6.678;2023-02-14T08:26:18;802.40;;;680.73;;
3000;SDS011;1510;51.072;6.678;2023-02-14T08:28:44;782.70;;;683.50;;
3000;SDS011;1510;51.072;6.678;2023-02-14T08:31:11;779.30;;;683.20;;
3000;SDS011;1510;51.072;6.678;2023-02-14T08:33:48;771.00;;;675.23;;
3000;SDS011;1510;51.072;6.678;2023-02-14T08:36:15;771.13;;;672.63;;
3000;SDS011;1510;51.072;6.678;2023-02-14T08:38:42;778.70;;;680.80;;
3000;SDS011;1510;51.072;6.678;2023-02-14T08:41:10;782.90;;;691.20;;
3000;SDS011;1510;51.072;6.678;2023-02-14T08:43:37;779.97;;;696.73;;
3000;SDS011;1510;51.072;6.678;2023-02-14T08:46:04;784.77;;;701.13;;
3000;SDS011;1510;51.072;6.678;2023-02-14T08:48:31;789.10;;;707.30;;
3000;SDS011;1510;51.072;6.678;2023-02-14T08:51:00;791.57;;;710.60;;
3000;SDS011;1510;51.072;6.678;2023-02-14T08:53:30;794.87;;;713.40;;
3000;SDS011;1510;51.072;6.678;2023-02-14T08:56:00;785.47;;;707.53;;
3000;SDS011;1510;51.072;6.678;2023-02-14T08:58:29;792.93;;;715.20;;
3000;SDS011;1510;51.072;6.678;2023-02-14T09:00:59;768.33;;;694.90;;
3000;SDS011;1510;51.072;6.678;2023-02-14T09:03:26;771.07;;;702.53;;
3000;SDS011;1510;51.072;6.678;2023-02-14T09:05:53;744.83;;;678.20;;
3000;SDS011;1510;51.072;6.678;2023-02-14T09:08:20;748.03;;;685.13;;
3000;SDS011;1510;51.072;6.678;2023-02-14T09:10:46;731.83;;;672.60;;
3000;SDS011;1510;51.072;6.678;2023-02-14T09:13:13;709.10;;;653.43;;
3000;SDS011;1510;51.072;6.678;2023-02-14T09:15:42;686.80;;;634.90;;
3000;SDS011;1510;51.072;6.678;2023-02-14T09:18:08;678.93;;;630.20;;
3000;SDS011;1510;51.072;6.678;2023-02-14T09:20:35;661.70;;;615.87;;
3000;SDS011;1510;51.072;6.678;2023-02-14T09:23:02;610.97;;;571.43;;
3000;SDS011;1510;51.072;6.678;2023-02-14T09:25:29;564.30;;;531.00;;
3000;SDS011;1510;51.072;6.678;2023-02-14T09:27:55;492.73;;;465.73;;
3000;SDS011;1510;51.072;6.678;2023-02-14T09:30:22;487.23;;;459.73;;
3000;SDS011;1510;51.072;6.678;2023-02-14T09:32:51;487.53;;;461.90;;
3000;SDS011;1510;51.072;6.678;2023-02-14T09:35:18;373.90;;;356.10;;
3000;SDS011;1510;51.072;6.678;2023-02-14T09:37:45;386.33;;;367.13;;
3000;SDS011;1510;51.072;6.678;2023-02-14T09:40:30;266.30;;;253.03;;
3000;SDS011;1510;51.072;6.678;2023-02-14T09:43:08;214.47;;;203.33;;
3000;SDS011;1510;51.072;6.678;2023-02-14T09:45:40;156.27;;;146.97;;
3000;SDS011;1510;51.072;6.678;2023-02-14T09:48:11;178.03;;;168.67;;
3000;SDS011;1510;51.072;6.678;2023-02-14T09:50:47;125.07;;;118.03;;
3000;SDS011;1510;51.072;6.678;2023-02-14T09:53:19;89.20;;;81.97;;
3000;SDS011;1510;51.072;6.678;2023-02-14T09:55:51;40.43;;;35.57;;
3000;SDS011;1510;51.072;6.678;2023-02-14T09:58:25;43.57;;;23.07;;
3000;SDS011;1510;51.072;6.678;2023-02-14T10:00:58;33.47;;;21.10;;
3000;SDS011;1510;51.072;6.678;2023-02-14T10:03:50;37.80;;;26.17;;
3000;SDS011;1510;51.072;6.678;2023-02-14T10:06:39;41.00;;;24.80;;
3000;SDS011;1510;51.072;6.678;2023-02-14T10:09:13;34.30;;;20.60;;
3000;SDS011;1510;51.072;6.678;2023-02-14T10:11:48;33.13;;;20.50;;
3000;SDS011;1510;51.072;6.678;2023-02-14T10:14:16;33.63;;;19.93;;
3000;SDS011;1510;51.072;6.678;2023-02-14T10:16:45;32.07;;;18.73;;
3000;SDS011;1510;51.072;6.678;2023-02-14T10:19:17;32.13;;;18.10;;
3000;SDS011;1510;51.072;6.678;2023-02-14T10:21:47;30.73;;;18.80;;
3000;SDS011;1510;51.072;6.678;2023-02-14T10:24:20;27.13;;;17.23;;
3000;SDS011;1510;51.072;6.678;2023-02-14T10:26:53;25.90;;;16.03;;
3000;SDS011;1510;51.072;6.678;2023-02-14T10:29:26;26.97;;;16.20;;
3000;SDS011;1510;51.072;6.678;2023-02-14T10:31:54;29.17;;;16.63;;
3000;SDS011;1510;51.072;6.678;2023-02-14T10:34:28;30.03;;;17.30;;
3000;SDS011;1510;51.072;6.678;2023-02-14T10:37:03;24.37;;;15.73;;
3000;SDS011;1510;51.072;6.678;2023-02-14T10:39:52;26.47;;;15.77;;
3000;SDS011;1510;51.072;6.678;2023-02-14T10:42:28;33.17;;;18.53;;
3000;SDS011;1510;51.072;6.678;2023-02-14T10:45:04;29.53;;;18.50;;
3000;SDS011;1510;51.072;6.678;2023-02-14T10:47:43;28.13;;;16.60;;
3000;SDS011;1510;51.072;6.678;2023-02-14T10:50:18;32.40;;;17.80;;
3000;SDS011;1510;51.072;6.678;2023-02-14T10:52:51;30.33;;;17.50;;
3000;SDS011;1510;51.072;6.678;2023-02-14T10:55:26;27.00;;;16.07;;
3000;SDS011;1510;51.072;6.678;2023-02-14T10:58:00;30.33;;;17.40;;
3000;SDS011;1510;51.072;6.678;2023-02-14T11:00:30;29.47;;;16.83;;
3000;SDS011;1510;51.072;6.678;2023-02-14T11:03:00;26.93;;;15.40;;
3000;SDS011;1510;51.072;6.678;2023-02-14T11:05:31;27.77;;;16.00;;
3000;SDS011;1510;51.072;6.678;2023-02-14T11:08:09;26.23;;;15.67;;
3000;SDS011;1510;51.072;6.678;2023-02-14T11:10:39;26.13;;;16.40;;
3000;SDS011;1510;51.072;6.678;2023-02-14T11:13:11;24.30;;;15.20;;
3000;SDS011;1510;51.072;6.678;2023-02-14T11:15:55;26.07;;;14.90;;
3000;SDS011;1510;51.072;6.678;2023-02-14T11:18:24;24.10;;;15.80;;
3000;SDS011;1510;51.072;6.678;2023-02-14T11:21:01;24.93;;;16.10;;
3000;SDS011;1510;51.072;6.678;2023-02-14T11:23:31;23.47;;;16.23;;
3000;SDS011;1510;51.072;6.678;2023-02-14T11:25:59;23.03;;;15.20;;
3000;SDS011;1510;51.072;6.678;2023-02-14T11:28:29;24.87;;;16.53;;
3000;SDS011;1510;51.072;6.678;2023-02-14T11:30:56;30.93;;;17.03;;
3000;SDS011;1510;51.072;6.678;2023-02-14T11:33:27;22.57;;;15.60;;
3000;SDS011;1510;51.072;6.678;2023-02-14T11:35:59;27.90;;;17.40;;
3000;SDS011;1510;51.072;6.678;2023-02-14T11:38:29;25.37;;;14.73;;
3000;SDS011;1510;51.072;6.678;2023-02-14T11:40:59;26.37;;;15.50;;
3000;SDS011;1510;51.072;6.678;2023-02-14T11:43:30;23.20;;;14.67;;
3000;SDS011;1510;51.072;6.678;2023-02-14T11:46:11;21.97;;;14.40;;
3000;SDS011;1510;51.072;6.678;2023-02-14T11:48:53;26.67;;;15.93;;
3000;SDS011;1510;51.072;6.678;2023-02-14T11:51:26;25.60;;;15.67;;
3000;SDS011;1510;51.072;6.678;2023-02-14T11:53:56;24.10;;;15.03;;
3000;SDS011;1510;51.072;6.678;2023-02-14T11:56:42;24.40;;;15.20;;
3000;SDS011;1510;51.072;6.678;2023-02-14T11:59:23;26.13;;;15.07;;
3000;SDS011;1510;51.072;6.678;2023-02-14T12:01:55;29.47;;;15.20;;
3000;SDS011;1510;51.072;6.678;2023-02-14T12:04:25;26.07;;;15.77;;
3000;SDS011;1510;51.072;6.678;2023-02-14T12:07:14;23.87;;;14.33;;
3000;SDS011;1510;51.072;6.678;2023-02-14T12:09:47;20.93;;;14.50;;
3000;SDS011;1510;51.072;6.678;2023-02-14T12:12:29;25.77;;;15.87;;
3000;SDS011;1510;51.072;6.678;2023-02-14T12:15:02;26.73;;;15.57;;
3000;SDS011;1510;51.072;6.678;2023-02-14T12:17:48;22.37;;;14.20;;
3000;SDS011;1510;51.072;6.678;2023-02-14T12:20:16;24.47;;;14.87;;
3000;SDS011;1510;51.072;6.678;2023-02-14T12:22:50;23.20;;;14.67;;
3000;SDS011;1510;51.072;6.678;2023-02-14T12:25:27;24.90;;;13.77;;
3000;SDS011;1510;51.072;6.678;2023-02-14T12:28:02;25.70;;;15.00;;
3000;SDS011;1510;51.072;6.678;2023-02-14T12:30:34;22.57;;;14.37;;
3000;SDS011;1510;51.072;6.678;2023-02-14T12:33:01;23.90;;;15.10;;
3000;SDS011;1510;51.072;6.678;2023-02-14T12:35:34;23.10;;;14.40;;
3000;SDS011;1510;51.072;6.678;2023-02-14T12:38:12;21.57;;;13.43;;
3000;SDS011;1510;51.072;6.678;2023-02-14T12:40:47;26.40;;;15.20;;
3000;SDS011;1510;51.072;6.678;2023-02-14T12:43:32;22.27;;;13.67;;
3000;SDS011;1510;51.072;6.678;2023-02-14T12:46:20;26.30;;;14.40;;
3000;SDS011;1510;51.072;6.678;2023-02-14T12:49:04;20.97;;;14.43;;
3000;SDS011;1510;51.072;6.678;2023-02-14T12:51:42;26.90;;;14.93;;
3000;SDS011;1510;51.072;6.678;2023-02-14T12:57:05;21.10;;;14.53;;
3000;SDS011;1510;51.072;6.678;2023-02-14T12:59:40;23.00;;;13.53;;
3000;SDS011;1510;51.072;6.678;2023-02-14T13:02:33;27.63;;;13.93;;
3000;SDS011;1510;51.072;6.678;2023-02-14T13:05:15;24.93;;;14.03;;
3000;SDS011;1510;51.072;6.678;2023-02-14T13:07:57;22.30;;;13.70;;
3000;SDS011;1510;51.072;6.678;2023-02-14T13:10:38;18.73;;;12.87;;
3000;SDS011;1510;51.072;6.678;2023-02-14T13:13:17;22.60;;;12.93;;
3000;SDS011;1510;51.072;6.678;2023-02-14T13:15:53;20.50;;;12.90;;
3000;SDS011;1510;51.072;6.678;2023-02-14T13:18:30;19.60;;;11.93;;
3000;SDS011;1510;51.072;6.678;2023-02-14T13:21:03;24.23;;;14.00;;
3000;SDS011;1510;51.072;6.678;2023-02-14T13:23:32;24.23;;;14.87;;
3000;SDS011;1510;51.072;6.678;2023-02-14T13:26:05;22.07;;;13.13;;
3000;SDS011;1510;51.072;6.678;2023-02-14T13:28:36;22.43;;;13.90;;
3000;SDS011;1510;51.072;6.678;2023-02-14T13:31:06;25.27;;;13.67;;
3000;SDS011;1510;51.072;6.678;2023-02-14T13:33:39;27.30;;;13.70;;
3000;SDS011;1510;51.072;6.678;2023-02-14T13:36:09;24.17;;;14.87;;
3000;SDS011;1510;51.072;6.678;2023-02-14T13:38:40;21.60;;;13.27;;
3000;SDS011;1510;51.072;6.678;2023-02-14T13:41:11;19.07;;;12.37;;
3000;SDS011;1510;51.072;6.678;2023-02-14T13:43:46;23.47;;;13.87;;
3000;SDS011;1510;51.072;6.678;2023-02-14T13:46:17;22.33;;;12.97;;
3000;SDS011;1510;51.072;6.678;2023-02-14T13:48:56;23.97;;;13.93;;
3000;SDS011;1510;51.072;6.678;2023-02-14T13:51:44;20.07;;;12.17;;
3000;SDS011;1510;51.072;6.678;2023-02-14T13:54:29;22.50;;;13.43;;
3000;SDS011;1510;51.072;6.678;2023-02-14T13:57:00;25.03;;;14.40;;
3000;SDS011;1510;51.072;6.678;2023-02-14T13:59:29;24.60;;;14.17;;
3000;SDS011;1510;51.072;6.678;2023-02-14T14:04:55;23.63;;;13.53;;
3000;SDS011;1510;51.072;6.678;2023-02-14T14:07:22;23.00;;;13.60;;
3000;SDS011;1510;51.072;6.678;2023-02-14T14:09:55;23.60;;;13.97;;
3000;SDS011;1510;51.072;6.678;2023-02-14T14:12:41;25.00;;;15.07;;
3000;SDS011;1510;51.072;6.678;2023-02-14T14:15:10;28.93;;;14.60;;
3000;SDS011;1510;51.072;6.678;2023-02-14T14:17:39;32.23;;;14.50;;
3000;SDS011;1510;51.072;6.678;2023-02-14T14:23:18;22.20;;;14.17;;
3000;SDS011;1510;51.072;6.678;2023-02-14T14:26:01;21.80;;;13.53;;
3000;SDS011;1510;51.072;6.678;2023-02-14T14:28:50;25.07;;;14.23;;
3000;SDS011;1510;51.072;6.678;2023-02-14T14:31:18;25.30;;;12.87;;
3000;SDS011;1510;51.072;6.678;2023-02-14T14:33:45;25.63;;;14.40;;
3000;SDS011;1510;51.072;6.678;2023-02-14T14:36:23;27.37;;;12.90;;
3000;SDS011;1510;51.072;6.678;2023-02-14T14:38:52;24.43;;;13.23;;
3000;SDS011;1510;51.072;6.678;2023-02-14T14:41:19;24.47;;;12.20;;
3000;SDS011;1510;51.072;6.678;2023-02-14T14:43:53;24.10;;;12.20;;
3000;SDS011;1510;51.072;6.678;2023-02-14T14:46:20;18.97;;;11.10;;
3000;SDS011;1510;51.072;6.678;2023-02-14T14:48:51;24.77;;;12.07;;
3000;SDS011;1510;51.072;6.678;2023-02-14T14:51:24;27.83;;;12.77;;
3000;SDS011;1510;51.072;6.678;2023-02-14T14:53:53;26.77;;;13.93;;
3000;SDS011;1510;51.072;6.678;2023-02-14T14:56:23;21.80;;;11.40;;
3000;SDS011;1510;51.072;6.678;2023-02-14T14:58:53;23.63;;;11.90;;
3000;SDS011;1510;51.072;6.678;2023-02-14T15:01:27;27.73;;;14.47;;
3000;SDS011;1510;51.072;6.678;2023-02-14T15:04:11;19.77;;;11.27;;
3000;SDS011;1510;51.072;6.678;2023-02-14T15:06:41;23.00;;;11.50;;
3000;SDS011;1510;51.072;6.678;2023-02-14T15:09:12;22.43;;;12.80;;
3000;SDS011;1510;51.072;6.678;2023-02-14T15:11:41;22.93;;;12.17;;
3000;SDS011;1510;51.072;6.678;2023-02-14T15:14:28;24.30;;;12.47;;